Time;durP1;ratioP1;P1;durP2;ratioP2;P2;SDS_P1;SDS_P2;PMS_P1;PMS_P2;Temp;Humidity;BMP_temperature;BMP_pressure;BME280_temperature;BME280_humidity;BME280_pressure;Samples;Min_cycle;Max_cycle;Signal;HPM_P1;HPM_P2
2020/12/01 00:00:31;;;;;;;22.93;14.37;;;;;;;-1.26;90.54;100263.48;1831151;78;25751;-69
2020/12/01 00:02:58;;;;;;;23.90;14.73;;;;;;;-1.23;90.54;100269.04;1854737;76;25700;-69
2020/12/01 00:05:25;;;;;;;22.07;14.83;;;;;;;-1.24;90.47;100256.58;1826808;77;25617;-69
2020/12/01 00:07:52;;;;;;;21.90;13.77;;;;;;;-1.24;90.46;100256.58;1822391;78;25136;-70
2020/12/01 00:10:19;;;;;;;20.80;13.70;;;;;;;-1.25;90.37;100251.45;1822367;78;25134;-70
2020/12/01 00:12:47;;;;;;;21.47;14.30;;;;;;;-1.26;90.34;100251.86;1822287;78;25704;-69
2020/12/01 00:15:19;;;;;;;22.83;14.33;;;;;;;-1.25;90.41;100252.29;1822151;78;25076;-69
2020/12/01 00:17:47;;;;;;;22.20;13.93;;;;;;;-1.24;90.39;100254.42;1822259;78;25195;-69
2020/12/01 00:20:15;;;;;;;20.10;13.30;;;;;;;-1.21;90.38;100255.66;1822405;78;25068;-69
2020/12/01 00:22:42;;;;;;;17.20;12.27;;;;;;;-1.21;90.38;100248.75;1792235;78;25494;-69
2020/12/01 00:25:09;;;;;;;20.90;13.63;;;;;;;-1.21;90.36;100244.88;1822314;78;25266;-69
2020/12/01 00:27:36;;;;;;;20.30;13.80;;;;;;;-1.20;90.34;100249.17;1822118;78;25277;-69
2020/12/01 00:30:13;;;;;;;20.23;13.53;;;;;;;-1.19;90.30;100241.86;1822435;78;26043;-70
2020/12/01 00:32:48;;;;;;;21.10;13.40;;;;;;;-1.13;90.27;100231.39;1849782;76;26516;-68
2020/12/01 00:35:18;;;;;;;19.97;13.33;;;;;;;-1.18;90.25;100230.63;1819872;78;25609;-69
2020/12/01 00:37:45;;;;;;;19.87;13.07;;;;;;;-1.18;90.21;100229.34;1819853;77;25310;-68
2020/12/01 00:40:12;;;;;;;20.43;13.17;;;;;;;-1.17;90.27;100233.64;1819845;77;25176;-69
2020/12/01 00:42:40;;;;;;;21.03;14.40;;;;;;;-1.14;90.25;100226.25;1819872;78;25580;-69
2020/12/01 00:45:07;;;;;;;20.73;13.47;;;;;;;-1.16;90.15;100227.61;1819831;78;25246;-69
2020/12/01 00:47:34;;;;;;;21.33;12.80;;;;;;;-1.15;90.13;100225.41;1819821;77;25353;-69
2020/12/01 00:50:02;;;;;;;21.07;12.43;;;;;;;-1.15;90.12;100222.83;1815669;77;25203;-69
2020/12/01 00:52:29;;;;;;;21.07;12.40;;;;;;;-1.12;90.17;100224.06;1757242;80;25210;-68
2020/12/01 00:54:56;;;;;;;19.50;12.57;;;;;;;-1.10;90.18;100224.48;1787490;79;25213;-69
2020/12/01 00:57:23;;;;;;;18.73;12.07;;;;;;;-1.06;90.19;100222.23;1787440;79;25649;-69
2020/12/01 00:59:50;;;;;;;21.50;12.97;;;;;;;-1.04;90.19;100220.05;1787619;79;25265;-68
2020/12/01 01:02:19;;;;;;;21.33;13.80;;;;;;;-1.02;90.14;100214.41;1787010;79;25069;-69
2020/12/01 01:04:46;;;;;;;20.20;12.57;;;;;;;-0.96;90.22;100215.55;1787495;80;25205;-69
2020/12/01 01:07:12;;;;;;;16.17;11.23;;;;;;;-0.92;90.17;100211.62;1787537;79;25210;-69
2020/12/01 01:09:39;;;;;;;21.00;13.40;;;;;;;-0.86;90.16;100212.34;1787540;79;25328;-69
2020/12/01 01:12:06;;;;;;;19.57;12.37;;;;;;;-0.85;90.08;100214.05;1787398;79;25340;-69
2020/12/01 01:14:32;;;;;;;18.10;12.43;;;;;;;-0.81;90.06;100212.25;1787522;79;25297;-69
2020/12/01 01:16:59;;;;;;;19.33;13.53;;;;;;;-0.78;89.96;100209.60;1787489;79;25198;-69
2020/12/01 01:19:26;;;;;;;21.13;13.30;;;;;;;-0.73;90.03;100211.64;1787534;79;25228;-69
2020/12/01 01:21:52;;;;;;;18.60;13.33;;;;;;;-0.68;90.01;100198.19;1787498;80;25266;-69
2020/12/01 01:24:19;;;;;;;20.07;13.33;;;;;;;-0.63;89.92;100204.55;1787339;79;25609;-69
2020/12/01 01:26:49;;;;;;;21.80;13.63;;;;;;;-0.59;89.88;100200.58;1787451;79;25202;-70
2020/12/01 01:29:16;;;;;;;18.73;12.67;;;;;;;-0.56;89.76;100190.59;1787373;79;25084;-70
2020/12/01 01:31:43;;;;;;;19.73;13.70;;;;;;;-0.50;89.73;100194.34;1787296;80;25122;-69
2020/12/01 01:34:10;;;;;;;20.23;13.47;;;;;;;-0.48;89.68;100193.86;1787512;80;25270;-70
2020/12/01 01:36:37;;;;;;;21.50;13.60;;;;;;;-0.44;89.63;100187.72;1787383;79;25355;-69
2020/12/01 01:39:05;;;;;;;18.40;12.60;;;;;;;-0.41;89.47;100186.36;1787406;80;25317;-70
2020/12/01 01:41:34;;;;;;;21.60;13.87;;;;;;;-0.37;89.46;100179.37;1787270;79;25763;-69
2020/12/01 01:44:02;;;;;;;19.20;12.70;;;;;;;-0.33;89.38;100175.02;1786918;79;25285;-69
2020/12/01 01:46:41;;;;;;;18.50;12.63;;;;;;;-0.33;89.26;100165.97;1786903;80;25598;-69
2020/12/01 01:49:17;;;;;;;18.33;13.00;;;;;;;-0.33;89.16;100164.22;1786898;79;25689;-68
2020/12/01 01:51:51;;;;;;;19.03;12.93;;;;;;;-0.30;89.20;100158.11;1786914;78;25787;-71
2020/12/01 01:54:18;;;;;;;19.33;13.30;;;;;;;-0.29;89.09;100158.07;1786821;79;25791;-70
2020/12/01 01:56:46;;;;;;;18.10;12.17;;;;;;;-0.25;88.73;100154.97;1786842;80;25318;-68
2020/12/01 01:59:13;;;;;;;20.83;12.57;;;;;;;-0.26;88.69;100154.12;1786901;80;25282;-69
2020/12/01 02:01:40;;;;;;;18.07;11.97;;;;;;;-0.23;88.45;100150.62;1786946;79;25316;-70
2020/12/01 02:04:10;;;;;;;19.33;13.20;;;;;;;-0.25;88.14;100142.04;1787029;80;25278;-69
2020/12/01 02:06:44;;;;;;;21.80;13.80;;;;;;;-0.22;88.32;100149.72;1786805;79;25137;-71
2020/12/01 02:09:18;;;;;;;16.77;11.70;;;;;;;-0.21;88.28;100141.94;1786813;79;25759;-70
2020/12/01 02:11:45;;;;;;;16.70;11.53;;;;;;;-0.21;88.30;100141.09;1786897;79;25695;-69
2020/12/01 02:14:29;;;;;;;18.20;12.17;;;;;;;-0.19;88.29;100139.31;1787061;79;25278;-69
2020/12/01 02:17:01;;;;;;;19.70;12.00;;;;;;;-0.18;88.25;100146.19;1786959;79;25281;-69
2020/12/01 02:19:29;;;;;;;17.83;12.50;;;;;;;-0.15;88.36;100146.55;1784721;79;25700;-70
2020/12/01 02:21:57;;;;;;;19.47;12.43;;;;;;;-0.14;88.33;100134.88;1786838;79;25202;-69
2020/12/01 02:24:28;;;;;;;15.07;10.20;;;;;;;-0.12;88.24;100136.13;1786997;80;25218;-69
2020/12/01 02:26:58;;;;;;;18.27;10.87;;;;;;;-0.11;88.21;100128.34;1786927;79;25222;-69
2020/12/01 02:29:30;;;;;;;19.37;12.67;;;;;;;-0.11;87.96;100123.61;1786897;80;25269;-69
2020/12/01 02:31:57;;;;;;;19.30;13.30;;;;;;;-0.08;88.10;100127.42;1758707;80;25218;-68
2020/12/01 02:34:35;;;;;;;18.27;11.80;;;;;;;-0.05;87.84;100118.27;1764063;80;25469;-68
2020/12/01 02:37:02;;;;;;;17.40;11.73;;;;;;;-0.07;87.56;100113.59;1792804;80;25288;-68
2020/12/01 02:39:29;;;;;;;17.63;11.27;;;;;;;-0.04;87.90;100118.68;1792690;78;25284;-69
2020/12/01 02:41:57;;;;;;;18.47;11.27;;;;;;;-0.01;87.84;100118.16;1792655;78;25202;-70
2020/12/01 02:44:25;;;;;;;15.70;11.00;;;;;;;0.01;87.58;100114.23;1792669;80;25823;-69
2020/12/01 02:46:52;;;;;;;16.10;10.83;;;;;;;0.01;87.51;100115.53;1792756;78;25269;-69
2020/12/01 02:49:20;;;;;;;18.13;11.40;;;;;;;-0.01;87.39;100110.39;1792709;78;25261;-68
2020/12/01 02:51:47;;;;;;;17.17;11.43;;;;;;;0.01;87.54;100112.11;1792627;78;25257;-69
2020/12/01 02:54:14;;;;;;;16.00;11.03;;;;;;;0.02;87.48;100106.89;1792549;78;25696;-68
2020/12/01 02:56:41;;;;;;;17.40;11.50;;;;;;;0.04;87.46;100106.40;1792580;78;25712;-69
2020/12/01 02:59:07;;;;;;;18.47;12.70;;;;;;;0.02;87.36;100104.73;1792716;79;25720;-69
2020/12/01 03:01:34;;;;;;;18.77;12.37;;;;;;;0.03;87.50;100098.68;1792742;80;25288;-69
2020/12/01 03:04:01;;;;;;;18.07;12.63;;;;;;;0.03;87.54;100097.39;1764138;80;25683;-69
2020/12/01 03:06:28;;;;;;;21.07;13.53;;;;;;;0.04;87.55;100095.22;1792642;78;25201;-69
2020/12/01 03:08:54;;;;;;;17.00;10.90;;;;;;;0.04;87.54;100088.75;1792491;80;25146;-69
2020/12/01 03:11:21;;;;;;;19.03;12.53;;;;;;;0.06;87.17;100089.09;1792670;80;25293;-69
2020/12/01 03:13:49;;;;;;;17.80;12.03;;;;;;;0.07;87.11;100082.17;1792762;80;25301;-69
2020/12/01 03:16:16;;;;;;;17.10;12.40;;;;;;;0.07;87.40;100083.05;1792607;78;25055;-68
2020/12/01 03:18:45;;;;;;;16.30;11.53;;;;;;;0.06;87.20;100081.34;1792819;78;25363;-69
2020/12/01 03:21:14;;;;;;;16.80;12.27;;;;;;;0.06;87.01;100070.16;1792619;78;25317;-69
2020/12/01 03:23:43;;;;;;;17.67;12.10;;;;;;;0.08;87.03;100072.25;1792805;80;25301;-69
2020/12/01 03:26:16;;;;;;;15.70;11.57;;;;;;;0.10;87.03;100071.33;1792580;80;25309;-69
2020/12/01 03:28:43;;;;;;;16.73;11.07;;;;;;;0.10;86.88;100071.33;1792682;78;25305;-69
2020/12/01 03:31:11;;;;;;;18.13;12.17;;;;;;;0.10;86.83;100067.87;1792683;78;25140;-69
2020/12/01 03:33:38;;;;;;;18.30;12.43;;;;;;;0.12;86.84;100072.58;1787090;80;25693;-69
2020/12/01 03:36:05;;;;;;;17.43;12.50;;;;;;;0.15;86.45;100072.47;1786787;79;25289;-70
2020/12/01 03:38:31;;;;;;;16.53;11.67;;;;;;;0.15;86.29;100069.88;1756231;79;25620;-70
2020/12/01 03:40:58;;;;;;;15.50;10.60;;;;;;;0.15;86.22;100062.99;1786808;79;25221;-69
2020/12/01 03:43:25;;;;;;;15.93;11.60;;;;;;;0.17;86.11;100066.84;1786836;79;25268;-69
2020/12/01 03:45:51;;;;;;;15.83;11.67;;;;;;;0.17;85.77;100064.25;1786630;80;25265;-69
2020/12/01 03:48:18;;;;;;;15.57;10.57;;;;;;;0.14;85.75;100070.80;1786777;79;25206;-69
2020/12/01 03:50:45;;;;;;;17.43;12.10;;;;;;;0.14;85.79;100062.58;1786662;79;25209;-69
2020/12/01 03:53:12;;;;;;;15.27;11.20;;;;;;;0.17;85.72;100068.13;1786816;80;25131;-69
2020/12/01 03:55:38;;;;;;;17.67;11.97;;;;;;;0.15;85.94;100059.53;1786737;79;25634;-69
2020/12/01 03:58:05;;;;;;;14.43;10.57;;;;;;;0.17;85.93;100062.95;1786625;79;25296;-69
2020/12/01 04:00:32;;;;;;;16.33;11.20;;;;;;;0.16;85.99;100069.00;1786758;79;25290;-69
2020/12/01 04:02:59;;;;;;;15.23;10.63;;;;;;;0.18;86.06;100062.05;1786719;79;25198;-68
2020/12/01 04:08:09;;;;;;;15.93;12.03;;;;;;;0.22;86.02;100061.09;1889308;75;27230;-68
2020/12/01 04:10:36;;;;;;;16.13;11.10;;;;;;;0.19;86.01;100063.75;1827098;77;25192;-68
2020/12/01 04:13:03;;;;;;;12.67;9.47;;;;;;;0.16;86.01;100065.97;1860088;77;25207;-68
2020/12/01 04:15:31;;;;;;;19.23;11.03;;;;;;;0.17;85.82;100065.09;1860162;76;25228;-68
2020/12/01 04:17:58;;;;;;;15.93;10.70;;;;;;;0.18;85.91;100067.22;1860096;77;25613;-69
2020/12/01 04:20:25;;;;;;;15.03;11.00;;;;;;;0.16;85.82;100067.26;1860104;77;25244;-68
2020/12/01 04:22:52;;;;;;;16.60;11.40;;;;;;;0.15;85.82;100072.47;1860118;76;25164;-68
2020/12/01 04:25:22;;;;;;;20.47;12.60;;;;;;;0.10;85.70;100060.98;1860132;76;25231;-68
2020/12/01 04:27:49;;;;;;;18.47;13.03;;;;;;;0.07;85.71;100063.65;1859956;76;25703;-69
2020/12/01 04:30:16;;;;;;;18.93;12.33;;;;;;;0.03;85.83;100050.37;1860116;77;25252;-68
2020/12/01 04:32:43;;;;;;;16.67;12.63;;;;;;;0.01;85.80;100053.91;1860226;77;25260;-68
2020/12/01 04:35:11;;;;;;;18.07;12.13;;;;;;;-0.01;85.88;100056.09;1860110;76;25659;-69
2020/12/01 04:37:37;;;;;;;14.73;11.20;;;;;;;0.01;85.94;100060.38;1860152;76;25670;-69
2020/12/01 04:40:07;;;;;;;16.63;11.47;;;;;;;-0.02;85.86;100056.99;1826887;77;25207;-69
2020/12/01 04:42:36;;;;;;;16.60;11.77;;;;;;;-0.06;85.85;100063.13;1860126;76;25589;-70
2020/12/01 04:45:08;;;;;;;16.63;11.83;;;;;;;-0.08;85.92;100056.31;1856933;76;25046;-69
2020/12/01 04:47:57;;;;;;;17.43;11.70;;;;;;;-0.09;85.98;100061.91;1860058;77;25176;-69
2020/12/01 04:50:35;;;;;;;15.40;10.20;;;;;;;-0.11;85.96;100060.27;1850728;77;25285;-69
2020/12/01 04:53:40;;;;;;;15.40;11.20;;;;;;;-0.14;85.98;100064.22;1825615;77;25250;-69
2020/12/01 04:56:38;;;;;;;15.47;10.27;;;;;;;-0.16;86.02;100064.72;1826435;77;25684;-69
2020/12/01 04:59:29;;;;;;;13.20;9.63;;;;;;;-0.20;86.00;100066.08;1791375;78;25108;-69
2020/12/01 05:02:14;;;;;;;12.87;9.63;;;;;;;-0.23;86.04;100064.03;1777855;77;25668;-69
2020/12/01 05:05:01;;;;;;;12.80;9.27;;;;;;;-0.27;86.07;100064.55;1805517;77;25130;-69
2020/12/01 05:10:14;;;;;;;13.07;9.50;;;;;;;-0.26;86.15;100064.10;1849406;76;26924;-69
2020/12/01 05:12:44;;;;;;;15.13;10.30;;;;;;;-0.33;86.11;100063.41;1819799;77;25192;-69
2020/12/01 05:15:31;;;;;;;15.67;10.47;;;;;;;-0.36;86.11;100062.20;1819724;77;25203;-69
2020/12/01 05:18:30;;;;;;;15.67;10.40;;;;;;;-0.38;86.05;100057.52;1817192;77;25258;-69
2020/12/01 05:21:00;;;;;;;15.73;11.03;;;;;;;-0.41;86.05;100069.22;1819851;77;25283;-70
2020/12/01 05:23:46;;;;;;;14.70;9.93;;;;;;;-0.44;86.12;100067.55;1819830;77;25196;-70
2020/12/01 05:26:17;;;;;;;13.70;10.03;;;;;;;-0.47;86.03;100067.65;1788096;77;25357;-69
2020/12/01 05:28:49;;;;;;;13.73;9.27;;;;;;;-0.50;86.03;100069.02;1819738;78;25251;-70
2020/12/01 05:31:18;;;;;;;15.47;11.03;;;;;;;-0.53;86.08;100072.96;1819596;78;25278;-69
2020/12/01 05:33:45;;;;;;;14.57;10.43;;;;;;;-0.56;86.11;100075.61;1819697;77;25666;-69
2020/12/01 05:36:23;;;;;;;12.87;9.37;;;;;;;-0.59;86.12;100076.98;1819708;77;25202;-69
2020/12/01 05:39:03;;;;;;;14.53;9.80;;;;;;;-0.63;86.19;100071.04;1819817;77;25239;-70
2020/12/01 05:41:34;;;;;;;13.20;8.43;;;;;;;-0.68;86.26;100071.59;1819676;77;25661;-69
2020/12/01 05:44:04;;;;;;;13.20;8.90;;;;;;;-0.70;86.29;100071.21;1819838;77;25689;-69
2020/12/01 05:46:36;;;;;;;14.77;10.23;;;;;;;-0.72;86.38;100072.99;1819727;78;25187;-69
2020/12/01 05:49:45;;;;;;;13.37;9.63;;;;;;;-0.76;86.47;100073.52;1819731;78;25220;-68
2020/12/01 05:52:31;;;;;;;14.10;10.40;;;;;;;-0.77;86.54;100066.22;1793768;77;25710;-68
2020/12/01 05:55:19;;;;;;;14.43;9.90;;;;;;;-0.78;86.55;100071.42;1819707;78;25247;-69
2020/12/01 05:58:11;;;;;;;16.57;10.53;;;;;;;-0.77;86.68;100078.30;1819703;77;25785;-69
2020/12/01 06:00:41;;;;;;;14.37;10.30;;;;;;;-0.78;86.64;100081.75;1819754;78;25262;-69
2020/12/01 06:03:30;;;;;;;15.37;10.37;;;;;;;-0.78;86.60;100088.20;1819788;77;25706;-69
2020/12/01 06:05:58;;;;;;;15.80;11.53;;;;;;;-0.78;86.66;100086.91;1819848;77;25287;-69
2020/12/01 06:08:58;;;;;;;16.87;11.43;;;;;;;-0.78;86.68;100090.34;1820689;77;25776;-69
2020/12/01 06:11:51;;;;;;;17.97;11.03;;;;;;;-0.77;86.70;100089.47;1828265;78;25085;-69
2020/12/01 06:14:44;;;;;;;15.23;10.67;;;;;;;-0.73;86.67;100086.36;1828939;77;25650;-70
2020/12/01 06:17:15;;;;;;;16.40;10.50;;;;;;;-0.75;86.51;100087.69;1829063;77;25679;-69
2020/12/01 06:20:03;;;;;;;18.50;11.93;;;;;;;-0.78;86.49;100081.30;1828977;78;25174;-69
2020/12/01 06:22:57;;;;;;;16.37;10.60;;;;;;;-0.81;86.48;100082.66;1827603;78;25394;-69
2020/12/01 06:25:48;;;;;;;16.27;9.40;;;;;;;-0.83;86.53;100099.93;1827723;77;25266;-69
2020/12/01 06:28:46;;;;;;;16.27;10.80;;;;;;;-0.86;86.54;100088.83;1828472;78;25793;-68
2020/12/01 06:31:51;;;;;;;17.70;11.43;;;;;;;-0.89;86.57;100092.31;1828356;77;25606;-69
2020/12/01 06:34:35;;;;;;;20.50;12.40;;;;;;;-0.89;86.55;100094.89;1828478;77;25267;-69
2020/12/01 06:37:30;;;;;;;19.27;11.97;;;;;;;-0.94;86.55;100092.44;1827993;77;25195;-68
2020/12/01 06:40:20;;;;;;;17.93;11.00;;;;;;;-0.95;86.57;100092.48;1828322;77;25203;-69
2020/12/01 06:42:54;;;;;;;18.43;11.80;;;;;;;-0.98;86.56;100095.13;1828290;78;25263;-68
2020/12/01 06:45:38;;;;;;;17.90;11.27;;;;;;;-1.02;86.55;100092.19;1801189;78;25041;-69
2020/12/01 06:48:13;;;;;;;20.20;11.90;;;;;;;-1.02;86.63;100098.22;1828538;78;25238;-70
2020/12/01 06:50:48;;;;;;;20.53;11.77;;;;;;;-1.04;86.58;100098.70;1828495;78;25338;-69
2020/12/01 06:53:31;;;;;;;20.07;11.50;;;;;;;-1.06;86.60;100099.61;1828523;78;25116;-70
2020/12/01 06:56:08;;;;;;;20.87;13.10;;;;;;;-1.08;86.65;100089.77;1828423;77;25207;-68
2020/12/01 06:58:42;;;;;;;26.97;14.50;;;;;;;-1.10;86.69;100100.12;1827529;78;25041;-68
2020/12/01 07:01:31;;;;;;;20.13;12.67;;;;;;;-1.08;86.73;100103.96;1828167;77;25283;-68
2020/12/01 07:04:15;;;;;;;22.13;12.67;;;;;;;-1.09;86.74;100104.83;1800659;78;25598;-68
2020/12/01 07:06:55;;;;;;;25.17;13.20;;;;;;;-1.11;86.73;100108.73;1828398;77;25336;-68
2020/12/01 07:09:32;;;;;;;14.97;10.40;;;;;;;-1.13;86.84;100101.47;1828237;78;25199;-69
2020/12/01 07:12:17;;;;;;;17.43;11.03;;;;;;;-1.14;86.90;100110.96;1828401;77;25192;-69
2020/12/01 07:15:07;;;;;;;17.73;11.20;;;;;;;-1.15;86.91;100115.70;1828432;77;25230;-69
2020/12/01 07:17:46;;;;;;;16.20;10.77;;;;;;;-1.12;86.97;100120.80;1828174;77;25191;-69
2020/12/01 07:20:27;;;;;;;19.27;12.10;;;;;;;-1.07;86.97;100126.30;1827494;78;25239;-69
2020/12/01 07:23:20;;;;;;;24.20;16.23;;;;;;;-1.05;86.96;100124.55;1828421;77;25250;-69
2020/12/01 07:26:24;;;;;;;26.07;16.57;;;;;;;-1.02;86.98;100125.33;1763330;80;25338;-69
2020/12/01 07:29:18;;;;;;;20.10;13.50;;;;;;;-0.95;87.06;100120.88;1827463;77;25271;-69
2020/12/01 07:31:45;;;;;;;20.60;13.67;;;;;;;-0.87;87.04;100112.94;1828175;78;25733;-68
2020/12/01 07:34:29;;;;;;;19.37;12.90;;;;;;;-0.82;87.01;100116.27;1828136;77;25608;-69
2020/12/01 07:37:33;;;;;;;18.20;12.50;;;;;;;-0.78;87.02;100117.45;1828360;78;25740;-70
2020/12/01 07:40:01;;;;;;;16.63;11.73;;;;;;;-0.71;87.02;100120.75;1827951;77;25261;-70
2020/12/01 07:42:31;;;;;;;17.00;11.93;;;;;;;-0.61;87.03;100125.27;1828420;78;25618;-68
2020/12/01 07:44:58;;;;;;;19.03;12.13;;;;;;;-0.53;86.98;100125.94;1828401;77;25194;-70
2020/12/01 07:47:28;;;;;;;19.03;12.40;;;;;;;-0.42;87.06;100118.78;1828251;78;25231;-70
2020/12/01 07:50:02;;;;;;;16.37;12.10;;;;;;;-0.30;86.98;100125.80;1828245;77;25196;-70
2020/12/01 07:52:39;;;;;;;17.33;11.77;;;;;;;-0.18;86.85;100122.92;1828416;78;25287;-71
2020/12/01 07:55:27;;;;;;;19.43;12.43;;;;;;;-0.09;86.23;100121.38;1828409;78;25306;-70
2020/12/01 07:58:05;;;;;;;17.50;12.73;;;;;;;0.02;86.55;100115.95;1820263;78;25598;-68
2020/12/01 08:00:32;;;;;;;20.60;13.27;;;;;;;0.07;85.84;100116.67;1801678;78;25255;-71
2020/12/01 08:03:07;;;;;;;18.93;11.80;;;;;;;0.18;86.32;100112.48;1828285;77;25243;-71
2020/12/01 08:05:34;;;;;;;16.93;11.57;;;;;;;0.24;85.88;100113.62;1827902;78;25255;-69
2020/12/01 08:08:01;;;;;;;17.83;11.93;;;;;;;0.28;85.94;100106.17;1828311;78;25251;-69
2020/12/01 08:10:28;;;;;;;17.20;12.60;;;;;;;0.35;85.60;100118.06;1828203;78;25311;-69
2020/12/01 08:13:02;;;;;;;22.50;14.83;;;;;;;0.44;85.65;100114.37;1828333;78;25279;-69
2020/12/01 08:15:28;;;;;;;20.90;14.10;;;;;;;0.51;85.48;100121.06;1828284;77;25243;-69
2020/12/01 08:17:55;;;;;;;22.67;15.10;;;;;;;0.59;85.36;100122.57;1828283;77;25207;-69
2020/12/01 08:20:24;;;;;;;19.37;13.87;;;;;;;0.64;85.22;100122.86;1828326;77;25725;-70
2020/12/01 08:22:57;;;;;;;21.13;15.87;;;;;;;0.73;85.06;100121.28;1828375;77;25285;-70
2020/12/01 08:25:27;;;;;;;33.90;24.57;;;;;;;0.82;84.98;100123.20;1800376;78;25689;-70
2020/12/01 08:28:08;;;;;;;78.40;49.93;;;;;;;0.91;84.44;100122.49;1828202;78;25669;-69
2020/12/01 08:30:58;;;;;;;28.33;20.73;;;;;;;1.02;84.81;100118.30;1813922;77;25255;-68
2020/12/01 08:33:49;;;;;;;20.07;15.37;;;;;;;1.14;83.89;100117.08;1828242;78;25243;-69
2020/12/01 08:36:25;;;;;;;19.67;15.00;;;;;;;1.21;83.27;100127.64;1827098;77;25214;-70
2020/12/01 08:39:00;;;;;;;20.80;16.17;;;;;;;1.31;83.75;100130.80;1828367;77;25076;-70
2020/12/01 08:41:53;;;;;;;20.13;15.00;;;;;;;1.40;83.17;100131.79;1828307;77;25096;-69
2020/12/01 08:44:43;;;;;;;17.00;12.80;;;;;;;1.53;83.20;100132.72;1828274;78;25267;-69
2020/12/01 08:47:10;;;;;;;19.00;14.37;;;;;;;1.57;81.45;100131.25;1828399;77;25263;-69
2020/12/01 08:49:45;;;;;;;21.57;14.17;;;;;;;1.59;82.29;100135.09;1828202;77;25116;-69
2020/12/01 08:52:40;;;;;;;21.23;16.00;;;;;;;1.63;82.24;100125.03;1828311;77;25282;-72
2020/12/01 08:55:27;;;;;;;35.17;26.47;;;;;;;1.70;82.66;100126.52;1828310;78;25250;-69
2020/12/01 08:58:16;;;;;;;25.60;17.97;;;;;;;1.77;81.68;100131.89;1828254;78;25313;-68
2020/12/01 09:01:10;;;;;;;30.80;24.63;;;;;;;1.80;81.00;100138.28;1828307;77;25242;-69
2020/12/01 09:03:42;;;;;;;22.10;18.13;;;;;;;1.89;82.26;100129.33;1828285;77;25247;-69
2020/12/01 09:06:35;;;;;;;21.50;16.43;;;;;;;2.02;81.46;100132.37;1826293;77;25350;-68
2020/12/01 09:09:13;;;;;;;19.70;15.03;;;;;;;2.05;81.45;100137.45;1828323;78;25179;-69
2020/12/01 09:23:16;;;;;;;24.87;16.63;;;;;;;2.40;79.52;100148.36;1785086;79;25205;-69
2020/12/01 09:25:45;;;;;;;23.13;17.63;;;;;;;2.42;79.59;100145.25;1797434;79;25245;-70
2020/12/01 09:28:19;;;;;;;21.00;15.87;;;;;;;2.44;78.92;100146.04;1797211;79;25236;-69
2020/12/01 09:30:46;;;;;;;23.90;18.27;;;;;;;2.52;79.64;100141.42;1764668;79;25217;-70
2020/12/01 09:33:17;;;;;;;18.77;14.73;;;;;;;2.58;79.22;100141.20;1797489;79;25331;-70
2020/12/01 09:35:45;;;;;;;18.07;13.87;;;;;;;2.59;78.80;100145.48;1764835;79;25315;-70
2020/12/01 09:38:12;;;;;;;19.63;13.77;;;;;;;2.59;78.26;100145.94;1796972;79;25754;-70
2020/12/01 09:40:39;;;;;;;20.93;15.03;;;;;;;2.60;78.96;100135.50;1797390;79;25300;-70
2020/12/01 09:43:19;;;;;;;22.63;16.37;;;;;;;2.66;78.52;100136.17;1797395;79;25699;-69
2020/12/01 09:45:43;;;;;;;23.37;14.90;;;;;;;2.72;78.47;100136.80;1796360;79;25588;-70
2020/12/01 09:48:33;;;;;;;29.90;20.90;;;;;;;2.78;78.73;100129.22;1797352;79;25308;-70
2020/12/01 09:50:57;;;;;;;61.53;41.40;;;;;;;2.81;78.22;100126.51;1795731;79;25253;-69
2020/12/01 09:53:32;;;;;;;35.00;24.00;;;;;;;2.90;78.40;100119.69;1795223;79;25140;-69
2020/12/01 09:56:11;;;;;;;56.10;37.13;;;;;;;2.95;78.18;100116.45;1793724;79;25277;-70
2020/12/01 09:59:07;;;;;;;46.43;30.80;;;;;;;3.03;77.72;100114.84;1794347;79;25775;-70
2020/12/01 10:14:30;;;;;;;24.17;17.97;;;;;;;3.25;75.53;100107.08;1787767;79;25324;-69
2020/12/01 10:35:37;;;;;;;30.13;21.43;;;;;;;3.77;74.12;100117.55;1769485;79;25335;-69
2020/12/01 10:38:04;;;;;;;26.80;19.43;;;;;;;3.87;74.21;100121.02;1797274;79;25702;-69
2020/12/01 10:40:31;;;;;;;27.40;21.17;;;;;;;3.97;73.35;100124.09;1797417;79;25312;-69
2020/12/01 10:42:58;;;;;;;20.73;15.07;;;;;;;4.04;72.57;100116.87;1797506;79;25213;-69
2020/12/01 10:45:27;;;;;;;23.87;18.47;;;;;;;4.03;72.57;100122.97;1797286;79;25197;-69
2020/12/01 10:47:54;;;;;;;20.10;14.83;;;;;;;4.01;72.78;100119.59;1797285;79;25217;-70
2020/12/01 10:50:28;;;;;;;21.67;14.40;;;;;;;4.07;72.95;100130.59;1796632;79;25152;-69
2020/12/01 10:52:55;;;;;;;19.10;14.87;;;;;;;4.16;72.87;100132.41;1795277;79;25273;-68
2020/12/01 10:55:28;;;;;;;18.03;13.73;;;;;;;4.27;70.97;100122.36;1795327;79;25212;-69
2020/12/01 10:57:55;;;;;;;17.87;12.93;;;;;;;4.35;70.58;100128.55;1795123;79;25213;-69
2020/12/01 11:00:23;;;;;;;17.17;13.10;;;;;;;4.32;70.48;100126.91;1795290;79;25150;-70
2020/12/01 11:02:50;;;;;;;16.87;13.50;;;;;;;4.35;70.74;100138.96;1795234;79;25312;-70
2020/12/01 11:05:22;;;;;;;28.10;19.37;;;;;;;4.38;69.26;100126.64;1795251;79;25631;-69
2020/12/01 11:07:49;;;;;;;49.70;30.53;;;;;;;4.37;70.13;100133.22;1795442;79;25351;-69
2020/12/01 11:10:16;;;;;;;22.57;16.57;;;;;;;4.43;68.77;100129.06;1795272;79;25213;-69
2020/12/01 11:12:43;;;;;;;34.43;23.37;;;;;;;4.41;69.59;100134.33;1795290;80;25359;-69
2020/12/01 11:15:10;;;;;;;28.47;19.87;;;;;;;4.36;68.74;100131.09;1795310;79;25581;-69
2020/12/01 11:17:37;;;;;;;30.00;21.53;;;;;;;4.40;69.57;100135.23;1795318;79;25616;-69
2020/12/01 11:20:06;;;;;;;27.87;19.73;;;;;;;4.45;69.05;100134.57;1795388;79;25281;-69
2020/12/01 11:22:39;;;;;;;23.37;17.93;;;;;;;4.40;69.44;100131.33;1795195;79;25214;-70
2020/12/01 11:25:06;;;;;;;23.17;16.90;;;;;;;4.35;69.43;100131.15;1765815;80;25126;-69
2020/12/01 11:27:33;;;;;;;23.67;16.23;;;;;;;4.41;70.05;100133.50;1795338;79;25692;-69
2020/12/01 11:29:59;;;;;;;29.47;21.23;;;;;;;4.49;69.29;100131.84;1788984;79;25213;-69
2020/12/01 11:32:26;;;;;;;23.30;17.50;;;;;;;4.46;69.73;100134.97;1786949;80;25273;-69
2020/12/01 11:34:53;;;;;;;21.27;15.83;;;;;;;4.54;69.25;100132.04;1786949;80;25289;-68
2020/12/01 11:37:20;;;;;;;16.97;13.40;;;;;;;4.61;69.49;100135.22;1786894;80;25285;-69
2020/12/01 11:39:47;;;;;;;21.27;16.47;;;;;;;4.59;68.75;100128.77;1786776;80;25147;-69
2020/12/01 11:42:14;;;;;;;18.07;15.50;;;;;;;4.55;68.42;100130.27;1786318;80;25329;-69
2020/12/01 11:44:40;;;;;;;17.67;14.87;;;;;;;4.57;68.65;100124.53;1786394;80;25725;-70
2020/12/01 11:47:07;;;;;;;20.00;14.90;;;;;;;4.61;69.32;100128.23;1753554;80;25659;-69
2020/12/01 11:49:34;;;;;;;21.53;16.70;;;;;;;4.67;69.33;100120.59;1786188;80;25276;-69
2020/12/01 11:52:01;;;;;;;18.80;14.90;;;;;;;4.69;68.29;100123.13;1786239;79;25324;-69
2020/12/01 11:54:28;;;;;;;16.50;13.87;;;;;;;4.67;68.64;100124.97;1752515;80;25302;-69
2020/12/01 11:56:55;;;;;;;18.03;13.37;;;;;;;4.64;68.47;100120.72;1786308;80;25317;-71
2020/12/01 11:59:22;;;;;;;16.20;12.17;;;;;;;4.68;68.86;100117.55;1786415;80;25238;-69
2020/12/01 12:01:50;;;;;;;17.83;14.40;;;;;;;4.67;67.30;100121.89;1786479;80;25983;-70
2020/12/01 12:04:18;;;;;;;17.30;13.70;;;;;;;4.58;68.01;100122.33;1754137;80;25301;-70
2020/12/01 12:06:45;;;;;;;18.83;13.30;;;;;;;4.51;68.13;100120.88;1728866;80;25293;-69
2020/12/01 12:09:13;;;;;;;19.13;16.20;;;;;;;4.49;68.37;100118.81;1786326;80;25242;-70
2020/12/01 12:11:39;;;;;;;20.60;15.73;;;;;;;4.53;68.07;100122.52;1786464;80;25325;-69
2020/12/01 12:14:06;;;;;;;19.30;13.97;;;;;;;4.52;67.54;100119.98;1786402;80;25217;-70
2020/12/01 12:16:34;;;;;;;15.30;12.33;;;;;;;4.44;67.72;100119.01;1786294;80;25759;-70
2020/12/01 12:19:00;;;;;;;16.67;13.30;;;;;;;4.41;67.63;100116.10;1786339;80;25691;-71
2020/12/01 12:21:28;;;;;;;20.93;15.87;;;;;;;4.33;67.52;100116.89;1786346;80;25209;-71
2020/12/01 12:23:54;;;;;;;23.80;18.60;;;;;;;4.30;67.71;100122.23;1786431;80;25298;-70
2020/12/01 12:26:21;;;;;;;22.23;16.87;;;;;;;4.25;67.48;100123.72;1786171;80;25202;-71
2020/12/01 12:28:48;;;;;;;16.80;13.60;;;;;;;4.18;67.12;100127.98;1786316;80;25348;-69